sensor_id;sensor_type;location;lat;lon;timestamp;temperature;humidity
28087;DHT22;15392;48.912;8.380;2023-07-13T00:02:07;25.70;40.60
28087;DHT22;15392;48.912;8.380;2023-07-13T00:04:34;25.70;40.60
28087;DHT22;15392;48.912;8.380;2023-07-13T00:06:59;25.70;40.60
28087;DHT22;15392;48.912;8.380;2023-07-13T00:09:25;25.60;40.50
28087;DHT22;15392;48.912;8.380;2023-07-13T00:11:55;25.60;40.60
28087;DHT22;15392;48.912;8.380;2023-07-13T00:14:23;25.60;40.60
28087;DHT22;15392;48.912;8.380;2023-07-13T00:16:50;25.50;40.70
28087;DHT22;15392;48.912;8.380;2023-07-13T00:19:17;25.50;40.80
28087;DHT22;15392;48.912;8.380;2023-07-13T00:21:43;25.50;40.80
28087;DHT22;15392;48.912;8.380;2023-07-13T00:24:12;25.50;40.80
28087;DHT22;15392;48.912;8.380;2023-07-13T00:26:39;25.40;41.20
28087;DHT22;15392;48.912;8.380;2023-07-13T00:29:05;25.40;40.60
28087;DHT22;15392;48.912;8.380;2023-07-13T00:31:34;25.40;40.60
28087;DHT22;15392;48.912;8.380;2023-07-13T00:34:01;25.40;40.70
28087;DHT22;15392;48.912;8.380;2023-07-13T00:36:27;25.30;40.70
28087;DHT22;15392;48.912;8.380;2023-07-13T00:38:53;25.30;40.70
28087;DHT22;15392;48.912;8.380;2023-07-13T00:41:19;25.20;40.60
28087;DHT22;15392;48.912;8.380;2023-07-13T00:43:45;25.20;40.60
28087;DHT22;15392;48.912;8.380;2023-07-13T00:46:32;25.20;40.60
28087;DHT22;15392;48.912;8.380;2023-07-13T00:49:01;25.10;40.80
28087;DHT22;15392;48.912;8.380;2023-07-13T00:51:57;25.10;40.60
28087;DHT22;15392;48.912;8.380;2023-07-13T00:54:29;25.00;40.90
28087;DHT22;15392;48.912;8.380;2023-07-13T00:57:01;25.00;40.40
28087;DHT22;15392;48.912;8.380;2023-07-13T00:59:30;24.90;40.70
28087;DHT22;15392;48.912;8.380;2023-07-13T01:01:57;24.90;40.80
28087;DHT22;15392;48.912;8.380;2023-07-13T01:04:26;24.90;40.90
28087;DHT22;15392;48.912;8.380;2023-07-13T01:06:52;24.90;41.20
28087;DHT22;15392;48.912;8.380;2023-07-13T01:09:20;24.90;41.10
28087;DHT22;15392;48.912;8.380;2023-07-13T01:11:46;24.80;41.10
28087;DHT22;15392;48.912;8.380;2023-07-13T01:14:13;24.80;41.10
28087;DHT22;15392;48.912;8.380;2023-07-13T01:16:40;24.70;41.20
28087;DHT22;15392;48.912;8.380;2023-07-13T01:19:38;24.70;41.30
28087;DHT22;15392;48.912;8.380;2023-07-13T01:22:14;24.70;41.50
28087;DHT22;15392;48.912;8.380;2023-07-13T01:24:43;24.70;41.40
28087;DHT22;15392;48.912;8.380;2023-07-13T01:27:13;24.60;41.40
28087;DHT22;15392;48.912;8.380;2023-07-13T01:29:41;24.60;41.40
28087;DHT22;15392;48.912;8.380;2023-07-13T01:32:10;24.50;42.10
28087;DHT22;15392;48.912;8.380;2023-07-13T01:34:37;24.50;41.50
28087;DHT22;15392;48.912;8.380;2023-07-13T01:37:06;24.40;41.50
28087;DHT22;15392;48.912;8.380;2023-07-13T01:39:32;24.40;41.50
28087;DHT22;15392;48.912;8.380;2023-07-13T01:41:58;24.40;41.60
28087;DHT22;15392;48.912;8.380;2023-07-13T01:44:24;24.30;41.60
28087;DHT22;15392;48.912;8.380;2023-07-13T01:46:50;24.30;41.60
28087;DHT22;15392;48.912;8.380;2023-07-13T01:49:15;24.30;41.60
28087;DHT22;15392;48.912;8.380;2023-07-13T01:51:41;24.20;41.50
28087;DHT22;15392;48.912;8.380;2023-07-13T01:54:07;24.20;41.50
28087;DHT22;15392;48.912;8.380;2023-07-13T01:56:32;24.20;41.70
28087;DHT22;15392;48.912;8.380;2023-07-13T01:58:58;24.20;41.70
28087;DHT22;15392;48.912;8.380;2023-07-13T02:01:24;24.10;41.80
28087;DHT22;15392;48.912;8.380;2023-07-13T02:03:49;24.00;41.90
28087;DHT22;15392;48.912;8.380;2023-07-13T02:06:15;24.00;41.90
28087;DHT22;15392;48.912;8.380;2023-07-13T02:08:41;23.90;41.90
28087;DHT22;15392;48.912;8.380;2023-07-13T02:11:08;23.90;41.80
28087;DHT22;15392;48.912;8.380;2023-07-13T02:13:34;23.90;42.00
28087;DHT22;15392;48.912;8.380;2023-07-13T02:16:00;23.80;42.00
28087;DHT22;15392;48.912;8.380;2023-07-13T02:18:26;23.80;42.00
28087;DHT22;15392;48.912;8.380;2023-07-13T02:20:52;23.70;42.20
28087;DHT22;15392;48.912;8.380;2023-07-13T02:23:18;23.70;42.10
28087;DHT22;15392;48.912;8.380;2023-07-13T02:25:48;23.60;42.10
28087;DHT22;15392;48.912;8.380;2023-07-13T02:28:14;23.60;42.10
28087;DHT22;15392;48.912;8.380;2023-07-13T02:30:40;23.60;42.10
28087;DHT22;15392;48.912;8.380;2023-07-13T02:33:05;23.60;42.30
28087;DHT22;15392;48.912;8.380;2023-07-13T02:35:31;23.50;42.20
28087;DHT22;15392;48.912;8.380;2023-07-13T02:37:57;23.50;42.10
28087;DHT22;15392;48.912;8.380;2023-07-13T02:40:23;23.40;42.40
28087;DHT22;15392;48.912;8.380;2023-07-13T02:42:49;23.40;42.40
28087;DHT22;15392;48.912;8.380;2023-07-13T02:45:14;23.40;42.30
28087;DHT22;15392;48.912;8.380;2023-07-13T02:47:41;23.30;42.30
28087;DHT22;15392;48.912;8.380;2023-07-13T02:50:07;23.30;42.30
28087;DHT22;15392;48.912;8.380;2023-07-13T02:52:34;23.40;42.20
28087;DHT22;15392;48.912;8.380;2023-07-13T02:54:59;23.30;42.30
28087;DHT22;15392;48.912;8.380;2023-07-13T02:57:25;23.30;42.30
28087;DHT22;15392;48.912;8.380;2023-07-13T02:59:51;23.20;42.20
28087;DHT22;15392;48.912;8.380;2023-07-13T03:02:16;23.20;42.80
28087;DHT22;15392;48.912;8.380;2023-07-13T03:04:43;23.10;42.10
28087;DHT22;15392;48.912;8.380;2023-07-13T03:07:08;23.10;42.20
28087;DHT22;15392;48.912;8.380;2023-07-13T03:09:38;23.00;42.20
28087;DHT22;15392;48.912;8.380;2023-07-13T03:12:03;22.90;42.20
28087;DHT22;15392;48.912;8.380;2023-07-13T03:14:29;22.90;42.20
28087;DHT22;15392;48.912;8.380;2023-07-13T03:16:55;22.80;42.20
28087;DHT22;15392;48.912;8.380;2023-07-13T03:19:21;22.80;42.30
28087;DHT22;15392;48.912;8.380;2023-07-13T03:21:47;22.80;42.60
28087;DHT22;15392;48.912;8.380;2023-07-13T03:24:14;22.70;42.70
28087;DHT22;15392;48.912;8.380;2023-07-13T03:26:40;22.70;42.80
28087;DHT22;15392;48.912;8.380;2023-07-13T03:29:06;22.70;42.80
28087;DHT22;15392;48.912;8.380;2023-07-13T03:31:34;22.70;42.70
28087;DHT22;15392;48.912;8.380;2023-07-13T03:34:02;22.70;42.80
28087;DHT22;15392;48.912;8.380;2023-07-13T03:36:30;22.70;42.90
28087;DHT22;15392;48.912;8.380;2023-07-13T03:38:58;22.70;43.00
28087;DHT22;15392;48.912;8.380;2023-07-13T03:41:26;22.70;43.00
28087;DHT22;15392;48.912;8.380;2023-07-13T03:43:52;22.70;43.10
28087;DHT22;15392;48.912;8.380;2023-07-13T03:46:21;22.70;43.20
28087;DHT22;15392;48.912;8.380;2023-07-13T03:48:47;22.70;43.40
28087;DHT22;15392;48.912;8.380;2023-07-13T03:51:15;22.70;43.30
28087;DHT22;15392;48.912;8.380;2023-07-13T03:53:44;22.70;43.40
28087;DHT22;15392;48.912;8.380;2023-07-13T03:56:11;22.70;43.30
28087;DHT22;15392;48.912;8.380;2023-07-13T03:58:39;22.60;43.30
28087;DHT22;15392;48.912;8.380;2023-07-13T04:01:07;22.70;43.20
28087;DHT22;15392;48.912;8.380;2023-07-13T04:03:34;22.60;43.10
28087;DHT22;15392;48.912;8.380;2023-07-13T04:06:02;22.60;43.10
28087;DHT22;15392;48.912;8.380;2023-07-13T04:08:31;22.60;43.90
28087;DHT22;15392;48.912;8.380;2023-07-13T04:10:59;22.60;43.30
28087;DHT22;15392;48.912;8.380;2023-07-13T04:13:25;22.60;43.40
28087;DHT22;15392;48.912;8.380;2023-07-13T04:15:52;22.60;43.50
28087;DHT22;15392;48.912;8.380;2023-07-13T04:18:19;22.60;43.50
28087;DHT22;15392;48.912;8.380;2023-07-13T04:20:46;22.60;43.50
28087;DHT22;15392;48.912;8.380;2023-07-13T04:23:12;22.60;43.50
28087;DHT22;15392;48.912;8.380;2023-07-13T04:25:38;22.60;43.30
28087;DHT22;15392;48.912;8.380;2023-07-13T04:28:04;22.60;43.20
28087;DHT22;15392;48.912;8.380;2023-07-13T04:30:31;22.60;43.20
28087;DHT22;15392;48.912;8.380;2023-07-13T04:32:57;22.60;43.30
28087;DHT22;15392;48.912;8.380;2023-07-13T04:35:23;22.50;43.40
28087;DHT22;15392;48.912;8.380;2023-07-13T04:37:49;22.60;43.60
28087;DHT22;15392;48.912;8.380;2023-07-13T04:40:20;22.60;43.60
28087;DHT22;15392;48.912;8.380;2023-07-13T04:42:46;22.50;43.90
28087;DHT22;15392;48.912;8.380;2023-07-13T04:45:14;22.60;43.70
28087;DHT22;15392;48.912;8.380;2023-07-13T04:47:40;22.60;43.80
28087;DHT22;15392;48.912;8.380;2023-07-13T04:50:07;22.60;43.80
28087;DHT22;15392;48.912;8.380;2023-07-13T04:52:35;22.70;43.90
28087;DHT22;15392;48.912;8.380;2023-07-13T04:55:01;22.70;43.80
28087;DHT22;15392;48.912;8.380;2023-07-13T04:57:27;22.70;43.80
28087;DHT22;15392;48.912;8.380;2023-07-13T04:59:54;22.80;43.80
28087;DHT22;15392;48.912;8.380;2023-07-13T05:02:20;22.80;43.80
28087;DHT22;15392;48.912;8.380;2023-07-13T05:04:49;22.80;43.80
28087;DHT22;15392;48.912;8.380;2023-07-13T05:07:15;22.90;43.90
28087;DHT22;15392;48.912;8.380;2023-07-13T05:09:43;22.90;43.70
28087;DHT22;15392;48.912;8.380;2023-07-13T05:12:09;22.90;43.70
28087;DHT22;15392;48.912;8.380;2023-07-13T05:14:36;23.00;43.70
28087;DHT22;15392;48.912;8.380;2023-07-13T05:17:03;23.00;43.70
28087;DHT22;15392;48.912;8.380;2023-07-13T05:19:30;23.00;43.70
28087;DHT22;15392;48.912;8.380;2023-07-13T05:21:55;23.00;43.70
28087;DHT22;15392;48.912;8.380;2023-07-13T05:24:21;23.10;43.80
28087;DHT22;15392;48.912;8.380;2023-07-13T05:26:47;23.10;43.80
28087;DHT22;15392;48.912;8.380;2023-07-13T05:29:13;23.10;43.80
28087;DHT22;15392;48.912;8.380;2023-07-13T05:31:39;23.10;43.80
28087;DHT22;15392;48.912;8.380;2023-07-13T05:34:04;23.10;43.80
28087;DHT22;15392;48.912;8.380;2023-07-13T05:36:30;23.20;44.00
28087;DHT22;15392;48.912;8.380;2023-07-13T05:38:56;23.20;44.00
28087;DHT22;15392;48.912;8.380;2023-07-13T05:41:23;23.20;43.90
28087;DHT22;15392;48.912;8.380;2023-07-13T05:43:49;23.20;43.90
28087;DHT22;15392;48.912;8.380;2023-07-13T05:46:14;23.30;44.00
28087;DHT22;15392;48.912;8.380;2023-07-13T05:48:40;23.30;44.00
28087;DHT22;15392;48.912;8.380;2023-07-13T05:51:06;23.30;44.00
28087;DHT22;15392;48.912;8.380;2023-07-13T05:53:34;23.40;44.10
28087;DHT22;15392;48.912;8.380;2023-07-13T05:56:01;23.40;44.10
28087;DHT22;15392;48.912;8.380;2023-07-13T05:58:27;23.40;43.90
28087;DHT22;15392;48.912;8.380;2023-07-13T06:01:09;23.50;44.00
28087;DHT22;15392;48.912;8.380;2023-07-13T06:03:36;23.50;44.30
28087;DHT22;15392;48.912;8.380;2023-07-13T06:06:04;23.60;43.90
28087;DHT22;15392;48.912;8.380;2023-07-13T06:08:31;23.60;43.80
28087;DHT22;15392;48.912;8.380;2023-07-13T06:11:08;23.70;43.60
28087;DHT22;15392;48.912;8.380;2023-07-13T06:13:38;23.60;44.00
28087;DHT22;15392;48.912;8.380;2023-07-13T06:16:04;23.70;43.60
28087;DHT22;15392;48.912;8.380;2023-07-13T06:18:32;23.70;43.70
28087;DHT22;15392;48.912;8.380;2023-07-13T06:20:59;23.80;43.90
28087;DHT22;15392;48.912;8.380;2023-07-13T06:23:25;23.90;43.90
28087;DHT22;15392;48.912;8.380;2023-07-13T06:25:51;23.90;43.80
28087;DHT22;15392;48.912;8.380;2023-07-13T06:28:17;24.00;43.60
28087;DHT22;15392;48.912;8.380;2023-07-13T06:30:43;24.00;43.50
28087;DHT22;15392;48.912;8.380;2023-07-13T06:33:09;24.10;43.70
28087;DHT22;15392;48.912;8.380;2023-07-13T06:35:35;24.10;43.70
28087;DHT22;15392;48.912;8.380;2023-07-13T06:38:00;24.20;43.60
28087;DHT22;15392;48.912;8.380;2023-07-13T06:40:27;24.30;43.30
28087;DHT22;15392;48.912;8.380;2023-07-13T06:42:56;24.40;43.20
28087;DHT22;15392;48.912;8.380;2023-07-13T06:45:23;24.50;43.10
28087;DHT22;15392;48.912;8.380;2023-07-13T06:47:48;24.50;42.90
28087;DHT22;15392;48.912;8.380;2023-07-13T06:50:15;24.60;42.80
28087;DHT22;15392;48.912;8.380;2023-07-13T06:52:40;24.70;42.70
28087;DHT22;15392;48.912;8.380;2023-07-13T06:55:06;24.80;42.70
28087;DHT22;15392;48.912;8.380;2023-07-13T06:57:32;24.90;42.70
28087;DHT22;15392;48.912;8.380;2023-07-13T06:59:58;25.00;43.40
28087;DHT22;15392;48.912;8.380;2023-07-13T07:02:24;25.10;42.80
28087;DHT22;15392;48.912;8.380;2023-07-13T07:04:49;25.20;42.80
28087;DHT22;15392;48.912;8.380;2023-07-13T07:07:15;25.30;42.60
28087;DHT22;15392;48.912;8.380;2023-07-13T07:09:41;25.40;42.30
28087;DHT22;15392;48.912;8.380;2023-07-13T07:12:08;25.50;42.10
28087;DHT22;15392;48.912;8.380;2023-07-13T07:14:34;25.60;42.10
28087;DHT22;15392;48.912;8.380;2023-07-13T07:17:00;25.70;42.10
28087;DHT22;15392;48.912;8.380;2023-07-13T07:19:30;25.80;42.10
28087;DHT22;15392;48.912;8.380;2023-07-13T07:21:56;25.80;42.00
28087;DHT22;15392;48.912;8.380;2023-07-13T07:24:22;26.00;42.10
28087;DHT22;15392;48.912;8.380;2023-07-13T07:26:49;26.20;42.20
28087;DHT22;15392;48.912;8.380;2023-07-13T07:29:16;26.30;42.20
28087;DHT22;15392;48.912;8.380;2023-07-13T07:31:43;26.50;42.10
28087;DHT22;15392;48.912;8.380;2023-07-13T07:34:08;26.60;41.90
28087;DHT22;15392;48.912;8.380;2023-07-13T07:36:34;26.80;41.70
28087;DHT22;15392;48.912;8.380;2023-07-13T07:39:03;26.90;41.70
28087;DHT22;15392;48.912;8.380;2023-07-13T07:41:30;27.00;41.80
28087;DHT22;15392;48.912;8.380;2023-07-13T07:43:56;27.10;42.30
28087;DHT22;15392;48.912;8.380;2023-07-13T07:46:22;27.30;41.70
28087;DHT22;15392;48.912;8.380;2023-07-13T07:48:48;27.50;41.40
28087;DHT22;15392;48.912;8.380;2023-07-13T07:51:14;27.60;41.40
28087;DHT22;15392;48.912;8.380;2023-07-13T07:53:39;27.70;41.10
28087;DHT22;15392;48.912;8.380;2023-07-13T07:56:06;27.90;41.00
28087;DHT22;15392;48.912;8.380;2023-07-13T07:58:32;28.00;41.10
28087;DHT22;15392;48.912;8.380;2023-07-13T08:01:05;28.20;41.30
28087;DHT22;15392;48.912;8.380;2023-07-13T08:03:32;28.50;40.70
28087;DHT22;15392;48.912;8.380;2023-07-13T08:05:58;28.80;41.20
28087;DHT22;15392;48.912;8.380;2023-07-13T08:08:24;29.10;41.10
28087;DHT22;15392;48.912;8.380;2023-07-13T08:10:51;29.40;41.40
28087;DHT22;15392;48.912;8.380;2023-07-13T08:13:17;29.70;41.00
28087;DHT22;15392;48.912;8.380;2023-07-13T08:15:43;30.00;41.10
28087;DHT22;15392;48.912;8.380;2023-07-13T08:18:09;30.40;40.40
28087;DHT22;15392;48.912;8.380;2023-07-13T08:20:41;30.70;40.30
28087;DHT22;15392;48.912;8.380;2023-07-13T08:23:07;31.00;39.40
28087;DHT22;15392;48.912;8.380;2023-07-13T08:25:35;31.30;39.50
28087;DHT22;15392;48.912;8.380;2023-07-13T08:28:02;31.50;38.60
28087;DHT22;15392;48.912;8.380;2023-07-13T08:30:30;31.70;38.80
28087;DHT22;15392;48.912;8.380;2023-07-13T08:32:57;31.90;38.80
28087;DHT22;15392;48.912;8.380;2023-07-13T08:35:23;32.00;38.80
28087;DHT22;15392;48.912;8.380;2023-07-13T08:37:51;32.10;38.40
28087;DHT22;15392;48.912;8.380;2023-07-13T08:40:18;32.20;37.40
28087;DHT22;15392;48.912;8.380;2023-07-13T08:42:55;32.20;37.10
28087;DHT22;15392;48.912;8.380;2023-07-13T08:45:33;32.20;36.20
28087;DHT22;15392;48.912;8.380;2023-07-13T08:48:30;32.20;36.90
28087;DHT22;15392;48.912;8.380;2023-07-13T08:53:55;32.20;35.90
28087;DHT22;15392;48.912;8.380;2023-07-13T08:56:27;32.30;37.80
28087;DHT22;15392;48.912;8.380;2023-07-13T08:59:02;32.30;36.90
28087;DHT22;15392;48.912;8.380;2023-07-13T09:04:18;32.50;36.50
28087;DHT22;15392;48.912;8.380;2023-07-13T09:12:19;32.80;37.50
28087;DHT22;15392;48.912;8.380;2023-07-13T09:14:53;33.00;36.70
28087;DHT22;15392;48.912;8.380;2023-07-13T09:17:29;33.20;37.40
28087;DHT22;15392;48.912;8.380;2023-07-13T09:20:04;33.40;37.20
28087;DHT22;15392;48.912;8.380;2023-07-13T09:22:37;33.50;36.10
28087;DHT22;15392;48.912;8.380;2023-07-13T09:25:24;33.70;36.70
28087;DHT22;15392;48.912;8.380;2023-07-13T09:27:58;33.80;35.30
28087;DHT22;15392;48.912;8.380;2023-07-13T09:30:56;33.90;36.30
28087;DHT22;15392;48.912;8.380;2023-07-13T09:33:27;34.00;35.80
28087;DHT22;15392;48.912;8.380;2023-07-13T09:35:59;34.10;36.80
28087;DHT22;15392;48.912;8.380;2023-07-13T09:38:28;34.20;36.90
28087;DHT22;15392;48.912;8.380;2023-07-13T09:41:28;34.30;35.90
28087;DHT22;15392;48.912;8.380;2023-07-13T09:44:10;34.40;35.10
28087;DHT22;15392;48.912;8.380;2023-07-13T09:46:51;34.40;35.10
28087;DHT22;15392;48.912;8.380;2023-07-13T09:49:18;34.50;36.70
28087;DHT22;15392;48.912;8.380;2023-07-13T09:51:48;34.60;36.60
28087;DHT22;15392;48.912;8.380;2023-07-13T09:54:21;34.70;36.40
28087;DHT22;15392;48.912;8.380;2023-07-13T09:56:56;34.70;34.70
28087;DHT22;15392;48.912;8.380;2023-07-13T09:59:26;34.60;34.70
28087;DHT22;15392;48.912;8.380;2023-07-13T10:01:54;34.60;34.70
28087;DHT22;15392;48.912;8.380;2023-07-13T10:04:33;34.50;35.20
28087;DHT22;15392;48.912;8.380;2023-07-13T10:07:07;34.40;34.20
28087;DHT22;15392;48.912;8.380;2023-07-13T10:09:34;34.30;34.00
28087;DHT22;15392;48.912;8.380;2023-07-13T10:12:00;34.10;35.50
28087;DHT22;15392;48.912;8.380;2023-07-13T10:14:27;34.00;35.40
28087;DHT22;15392;48.912;8.380;2023-07-13T10:17:00;33.90;35.40
28087;DHT22;15392;48.912;8.380;2023-07-13T10:19:32;33.70;34.50
28087;DHT22;15392;48.912;8.380;2023-07-13T10:22:02;33.60;34.70
28087;DHT22;15392;48.912;8.380;2023-07-13T10:24:50;33.50;35.10
28087;DHT22;15392;48.912;8.380;2023-07-13T10:27:19;33.30;35.00
28087;DHT22;15392;48.912;8.380;2023-07-13T10:32:38;33.00;34.00
28087;DHT22;15392;48.912;8.380;2023-07-13T10:35:04;33.00;35.70
28087;DHT22;15392;48.912;8.380;2023-07-13T10:37:51;32.80;35.40
28087;DHT22;15392;48.912;8.380;2023-07-13T10:40:29;32.70;34.10
28087;DHT22;15392;48.912;8.380;2023-07-13T10:43:00;32.60;34.30
28087;DHT22;15392;48.912;8.380;2023-07-13T10:45:34;32.50;35.40
28087;DHT22;15392;48.912;8.380;2023-07-13T10:48:01;32.40;34.80
28087;DHT22;15392;48.912;8.380;2023-07-13T10:50:29;32.30;35.90
28087;DHT22;15392;48.912;8.380;2023-07-13T10:53:02;32.20;35.80
28087;DHT22;15392;48.912;8.380;2023-07-13T10:55:35;32.10;35.00
28087;DHT22;15392;48.912;8.380;2023-07-13T10:58:20;32.10;35.20
28087;DHT22;15392;48.912;8.380;2023-07-13T11:01:08;32.00;34.90
28087;DHT22;15392;48.912;8.380;2023-07-13T11:06:16;31.90;35.00
28087;DHT22;15392;48.912;8.380;2023-07-13T11:08:58;31.80;35.80
28087;DHT22;15392;48.912;8.380;2023-07-13T11:14:03;31.60;34.70
28087;DHT22;15392;48.912;8.380;2023-07-13T11:16:45;31.60;35.00
28087;DHT22;15392;48.912;8.380;2023-07-13T11:27:41;31.30;34.20
28087;DHT22;15392;48.912;8.380;2023-07-13T11:32:39;31.30;35.80
28087;DHT22;15392;48.912;8.380;2023-07-13T11:35:13;31.30;35.70
28087;DHT22;15392;48.912;8.380;2023-07-13T11:37:48;31.30;35.40
28087;DHT22;15392;48.912;8.380;2023-07-13T11:40:15;31.30;35.60
28087;DHT22;15392;48.912;8.380;2023-07-13T11:42:41;31.30;35.60
28087;DHT22;15392;48.912;8.380;2023-07-13T11:45:21;31.30;35.40
28087;DHT22;15392;48.912;8.380;2023-07-13T11:47:49;31.30;34.20
28087;DHT22;15392;48.912;8.380;2023-07-13T11:50:20;31.30;35.50
28087;DHT22;15392;48.912;8.380;2023-07-13T11:52:49;31.40;35.20
28087;DHT22;15392;48.912;8.380;2023-07-13T11:55:20;31.40;35.90
28087;DHT22;15392;48.912;8.380;2023-07-13T11:57:51;31.50;35.90
28087;DHT22;15392;48.912;8.380;2023-07-13T12:00:26;31.50;34.80
28087;DHT22;15392;48.912;8.380;2023-07-13T12:02:57;31.60;35.40
28087;DHT22;15392;48.912;8.380;2023-07-13T12:05:25;31.60;35.20
28087;DHT22;15392;48.912;8.380;2023-07-13T12:07:51;31.70;35.80
28087;DHT22;15392;48.912;8.380;2023-07-13T12:10:19;31.80;35.20
28087;DHT22;15392;48.912;8.380;2023-07-13T12:15:28;32.00;35.20
28087;DHT22;15392;48.912;8.380;2023-07-13T12:18:17;32.00;35.30
28087;DHT22;15392;48.912;8.380;2023-07-13T12:20:45;32.10;34.60
28087;DHT22;15392;48.912;8.380;2023-07-13T12:23:25;32.20;35.70
28087;DHT22;15392;48.912;8.380;2023-07-13T12:26:01;32.40;34.40
28087;DHT22;15392;48.912;8.380;2023-07-13T12:28:48;32.40;35.10
28087;DHT22;15392;48.912;8.380;2023-07-13T12:31:56;32.50;33.70
28087;DHT22;15392;48.912;8.380;2023-07-13T12:34:24;32.60;33.70
28087;DHT22;15392;48.912;8.380;2023-07-13T12:36:56;32.60;35.10
28087;DHT22;15392;48.912;8.380;2023-07-13T12:45:03;32.60;33.30
28087;DHT22;15392;48.912;8.380;2023-07-13T12:47:47;32.70;33.60
28087;DHT22;15392;48.912;8.380;2023-07-13T12:50:17;32.80;34.80
28087;DHT22;15392;48.912;8.380;2023-07-13T12:52:53;32.80;34.70
28087;DHT22;15392;48.912;8.380;2023-07-13T12:55:22;32.70;33.90
28087;DHT22;15392;48.912;8.380;2023-07-13T12:57:54;32.80;34.90
28087;DHT22;15392;48.912;8.380;2023-07-13T13:00:30;32.80;34.30
28087;DHT22;15392;48.912;8.380;2023-07-13T13:03:53;32.90;34.10
28087;DHT22;15392;48.912;8.380;2023-07-13T13:08:51;32.80;33.70
28087;DHT22;15392;48.912;8.380;2023-07-13T13:11:21;32.80;33.50
28087;DHT22;15392;48.912;8.380;2023-07-13T13:13:49;32.80;34.20
28087;DHT22;15392;48.912;8.380;2023-07-13T13:19:10;32.80;33.30
28087;DHT22;15392;48.912;8.380;2023-07-13T13:21:39;32.80;34.30
28087;DHT22;15392;48.912;8.380;2023-07-13T13:24:17;32.90;35.20
28087;DHT22;15392;48.912;8.380;2023-07-13T13:26:46;32.90;33.20
28087;DHT22;15392;48.912;8.380;2023-07-13T13:29:19;33.00;34.00
28087;DHT22;15392;48.912;8.380;2023-07-13T13:31:50;33.00;33.20
28087;DHT22;15392;48.912;8.380;2023-07-13T13:34:19;33.00;34.10
28087;DHT22;15392;48.912;8.380;2023-07-13T13:36:47;33.00;33.80
28087;DHT22;15392;48.912;8.380;2023-07-13T13:41:50;32.90;33.50
28087;DHT22;15392;48.912;8.380;2023-07-13T13:44:17;32.90;33.90
28087;DHT22;15392;48.912;8.380;2023-07-13T13:46:46;32.90;34.00
28087;DHT22;15392;48.912;8.380;2023-07-13T13:49:22;32.80;33.20
28087;DHT22;15392;48.912;8.380;2023-07-13T13:51:51;32.80;32.60
28087;DHT22;15392;48.912;8.380;2023-07-13T13:54:19;32.80;33.90
28087;DHT22;15392;48.912;8.380;2023-07-13T13:56:47;32.70;34.00
28087;DHT22;15392;48.912;8.380;2023-07-13T13:59:15;32.70;33.90
28087;DHT22;15392;48.912;8.380;2023-07-13T14:01:42;32.70;34.00
28087;DHT22;15392;48.912;8.380;2023-07-13T14:04:19;32.60;33.60
28087;DHT22;15392;48.912;8.380;2023-07-13T14:06:46;32.60;32.60
28087;DHT22;15392;48.912;8.380;2023-07-13T14:09:16;32.50;33.70
28087;DHT22;15392;48.912;8.380;2023-07-13T14:11:44;32.50;33.80
28087;DHT22;15392;48.912;8.380;2023-07-13T14:14:23;32.40;33.90
28087;DHT22;15392;48.912;8.380;2023-07-13T14:16:52;32.40;32.80
28087;DHT22;15392;48.912;8.380;2023-07-13T14:19:19;32.40;34.30
28087;DHT22;15392;48.912;8.380;2023-07-13T14:21:46;32.40;34.90
28087;DHT22;15392;48.912;8.380;2023-07-13T14:24:14;32.40;34.00
28087;DHT22;15392;48.912;8.380;2023-07-13T14:26:41;32.40;34.00
28087;DHT22;15392;48.912;8.380;2023-07-13T14:29:16;32.40;34.00
28087;DHT22;15392;48.912;8.380;2023-07-13T14:31:43;32.30;33.40
28087;DHT22;15392;48.912;8.380;2023-07-13T14:34:12;32.30;34.20
28087;DHT22;15392;48.912;8.380;2023-07-13T14:36:44;32.30;33.90
28087;DHT22;15392;48.912;8.380;2023-07-13T14:39:16;32.30;34.00
28087;DHT22;15392;48.912;8.380;2023-07-13T14:41:44;32.30;34.10
28087;DHT22;15392;48.912;8.380;2023-07-13T14:44:14;32.30;34.30
28087;DHT22;15392;48.912;8.380;2023-07-13T14:46:44;32.20;33.60
28087;DHT22;15392;48.912;8.380;2023-07-13T14:49:16;32.20;33.70
28087;DHT22;15392;48.912;8.380;2023-07-13T14:51:49;32.20;34.10
28087;DHT22;15392;48.912;8.380;2023-07-13T14:54:16;32.20;34.00
28087;DHT22;15392;48.912;8.380;2023-07-13T14:56:41;32.20;33.40
28087;DHT22;15392;48.912;8.380;2023-07-13T14:59:07;32.20;33.50
28087;DHT22;15392;48.912;8.380;2023-07-13T15:01:35;32.20;33.90
28087;DHT22;15392;48.912;8.380;2023-07-13T15:04:02;32.10;33.60
28087;DHT22;15392;48.912;8.380;2023-07-13T15:06:28;32.10;33.70
28087;DHT22;15392;48.912;8.380;2023-07-13T15:08:54;32.00;33.90
28087;DHT22;15392;48.912;8.380;2023-07-13T15:11:21;32.00;33.80
28087;DHT22;15392;48.912;8.380;2023-07-13T15:13:47;32.00;33.90
28087;DHT22;15392;48.912;8.380;2023-07-13T15:16:21;32.00;33.90
28087;DHT22;15392;48.912;8.380;2023-07-13T15:18:49;32.00;33.70
28087;DHT22;15392;48.912;8.380;2023-07-13T15:21:22;32.00;33.90
28087;DHT22;15392;48.912;8.380;2023-07-13T15:23:50;32.00;33.10
28087;DHT22;15392;48.912;8.380;2023-07-13T15:26:18;32.00;33.70
28087;DHT22;15392;48.912;8.380;2023-07-13T15:28:45;32.00;33.90
28087;DHT22;15392;48.912;8.380;2023-07-13T15:31:24;32.00;34.00
28087;DHT22;15392;48.912;8.380;2023-07-13T15:33:53;32.00;32.80
28087;DHT22;15392;48.912;8.380;2023-07-13T15:36:21;31.90;33.90
28087;DHT22;15392;48.912;8.380;2023-07-13T15:38:48;31.90;33.90
28087;DHT22;15392;48.912;8.380;2023-07-13T15:41:21;31.90;34.00
28087;DHT22;15392;48.912;8.380;2023-07-13T15:43:50;31.90;33.80
28087;DHT22;15392;48.912;8.380;2023-07-13T15:46:18;31.90;33.80
28087;DHT22;15392;48.912;8.380;2023-07-13T15:48:46;31.90;33.60
28087;DHT22;15392;48.912;8.380;2023-07-13T15:51:29;31.90;33.70
28087;DHT22;15392;48.912;8.380;2023-07-13T15:53:59;31.90;32.80
28087;DHT22;15392;48.912;8.380;2023-07-13T15:56:34;31.80;33.70
28087;DHT22;15392;48.912;8.380;2023-07-13T15:59:01;31.80;33.50
28087;DHT22;15392;48.912;8.380;2023-07-13T16:01:29;31.80;34.20
28087;DHT22;15392;48.912;8.380;2023-07-13T16:03:55;31.80;34.00
28087;DHT22;15392;48.912;8.380;2023-07-13T16:06:28;31.80;34.10
28087;DHT22;15392;48.912;8.380;2023-07-13T16:08:58;31.80;33.10
28087;DHT22;15392;48.912;8.380;2023-07-13T16:11:26;31.80;34.00
28087;DHT22;15392;48.912;8.380;2023-07-13T16:13:53;31.80;33.80
28087;DHT22;15392;48.912;8.380;2023-07-13T16:16:23;31.80;33.80
28087;DHT22;15392;48.912;8.380;2023-07-13T16:18:55;31.70;33.80
28087;DHT22;15392;48.912;8.380;2023-07-13T16:21:24;31.70;33.40
28087;DHT22;15392;48.912;8.380;2023-07-13T16:23:52;31.70;33.80
28087;DHT22;15392;48.912;8.380;2023-07-13T16:26:32;31.70;33.90
28087;DHT22;15392;48.912;8.380;2023-07-13T16:29:14;31.70;33.00
28087;DHT22;15392;48.912;8.380;2023-07-13T16:32:11;31.70;33.20